Lejeune, North Carolina
Current Conditions -  °F | °C
As of 11:56 AM on Friday 21 Nov 2014 (Local Time) from KNCA Reporting Station
Clear Clear  
Wind Chill: 50°   Ceiling: Unl
Heat Index: 50°   Visibility: 10mi
Dew Point: 17°   Wind: 12mph
Humidity: 27%   Direction: 350°N
Pressure: 30.4"   Gusts: NA
Location:  34.7003°N, 77.3614°W
Report Text: KNCA 211656Z AUTO 35010KT 10SM CLR 10/M08 A3040 RMK AO2 SLP297 T01001083
Loading
Personal Weather Stations






























Interactive Weather Map New forecast layout! Learn more

10-Day Weather Forecast

Advertisements
Track Severe Weather on mobile